Anchorage, Utah
Current Conditions -  °F | °C
As of 10:58 PM on Friday 24 Oct 2014 (Local Time) from KHIF Reporting Station
Clear Clear  
Wind Chill: 62°   Ceiling: Unl
Heat Index: 62°   Visibility: 10mi
Dew Point: 29°   Wind: 12mph
Humidity: 28%   Direction: 120°ESE
Pressure: 30.11"   Gusts: NA
Location:  41.123°N, 112.063°W
Report Text: KHIF 250458Z AUTO 12010KT 10SM CLR 17/M02 A3011 RMK AO2 SLP151 T01691017
Loading
Personal Weather Stations






























Interactive Weather Map
Tropical Storm Tracking
New forecast layout! Learn more

10-Day Weather Forecast

Advertisements
Track Severe Weather on mobile